sensor_id;sensor_type;location;lat;lon;timestamp;P1;durP1;ratioP1;P2;durP2;ratioP2
52386;SDS011;38317;53.084;6.960;2022-11-20T00:01:27;13.20;;;6.07;;
52386;SDS011;38317;53.084;6.960;2022-11-20T00:03:54;12.60;;;6.10;;
52386;SDS011;38317;53.084;6.960;2022-11-20T00:06:21;13.65;;;6.63;;
52386;SDS011;38317;53.084;6.960;2022-11-20T00:08:47;13.57;;;6.28;;
52386;SDS011;38317;53.084;6.960;2022-11-20T00:11:14;12.88;;;6.38;;
52386;SDS011;38317;53.084;6.960;2022-11-20T00:13:45;11.88;;;5.70;;
52386;SDS011;38317;53.084;6.960;2022-11-20T00:16:13;13.80;;;6.35;;
52386;SDS011;38317;53.084;6.960;2022-11-20T00:18:41;11.60;;;6.30;;
52386;SDS011;38317;53.084;6.960;2022-11-20T00:21:16;12.50;;;6.35;;
52386;SDS011;38317;53.084;6.960;2022-11-20T00:23:44;13.45;;;7.13;;
52386;SDS011;38317;53.084;6.960;2022-11-20T00:26:11;12.68;;;5.93;;
52386;SDS011;38317;53.084;6.960;2022-11-20T00:28:39;13.45;;;6.03;;
52386;SDS011;38317;53.084;6.960;2022-11-20T00:31:15;11.95;;;5.82;;
52386;SDS011;38317;53.084;6.960;2022-11-20T00:33:41;11.50;;;5.45;;
52386;SDS011;38317;53.084;6.960;2022-11-20T00:36:12;12.38;;;5.82;;
52386;SDS011;38317;53.084;6.960;2022-11-20T00:38:40;10.07;;;5.40;;
52386;SDS011;38317;53.084;6.960;2022-11-20T00:41:07;12.32;;;5.30;;
52386;SDS011;38317;53.084;6.960;2022-11-20T00:43:34;12.73;;;5.60;;
52386;SDS011;38317;53.084;6.960;2022-11-20T00:46:01;12.07;;;5.70;;
52386;SDS011;38317;53.084;6.960;2022-11-20T00:48:28;11.07;;;5.72;;
52386;SDS011;38317;53.084;6.960;2022-11-20T00:50:54;11.40;;;5.25;;
52386;SDS011;38317;53.084;6.960;2022-11-20T00:53:21;13.52;;;5.72;;
52386;SDS011;38317;53.084;6.960;2022-11-20T00:56:19;12.50;;;5.45;;
52386;SDS011;38317;53.084;6.960;2022-11-20T00:58:40;11.60;;;5.53;;
52386;SDS011;38317;53.084;6.960;2022-11-20T01:03:37;12.90;;;6.45;;
52386;SDS011;38317;53.084;6.960;2022-11-20T01:06:12;13.07;;;6.25;;
52386;SDS011;38317;53.084;6.960;2022-11-20T01:08:44;12.90;;;6.10;;
52386;SDS011;38317;53.084;6.960;2022-11-20T01:11:12;12.68;;;6.95;;
52386;SDS011;38317;53.084;6.960;2022-11-20T01:13:39;11.70;;;6.57;;
52386;SDS011;38317;53.084;6.960;2022-11-20T01:16:10;12.35;;;5.50;;
52386;SDS011;38317;53.084;6.960;2022-11-20T01:18:37;11.43;;;5.75;;
52386;SDS011;38317;53.084;6.960;2022-11-20T01:21:06;12.43;;;6.00;;
52386;SDS011;38317;53.084;6.960;2022-11-20T01:23:34;13.50;;;5.05;;
52386;SDS011;38317;53.084;6.960;2022-11-20T01:26:04;13.25;;;5.72;;
52386;SDS011;38317;53.084;6.960;2022-11-20T01:28:31;15.05;;;5.85;;
52386;SDS011;38317;53.084;6.960;2022-11-20T01:30:57;9.75;;;5.30;;
52386;SDS011;38317;53.084;6.960;2022-11-20T01:33:24;11.93;;;5.55;;
52386;SDS011;38317;53.084;6.960;2022-11-20T01:35:50;10.85;;;5.82;;
52386;SDS011;38317;53.084;6.960;2022-11-20T01:38:16;11.55;;;5.45;;
52386;SDS011;38317;53.084;6.960;2022-11-20T01:40:42;13.48;;;5.85;;
52386;SDS011;38317;53.084;6.960;2022-11-20T01:43:16;12.13;;;5.28;;
52386;SDS011;38317;53.084;6.960;2022-11-20T01:51:21;13.43;;;6.13;;
52386;SDS011;38317;53.084;6.960;2022-11-20T01:53:50;12.48;;;6.30;;
52386;SDS011;38317;53.084;6.960;2022-11-20T01:56:18;12.50;;;6.47;;
52386;SDS011;38317;53.084;6.960;2022-11-20T01:58:47;10.15;;;5.60;;
52386;SDS011;38317;53.084;6.960;2022-11-20T02:01:16;10.98;;;5.28;;
52386;SDS011;38317;53.084;6.960;2022-11-20T02:03:42;10.57;;;4.93;;
52386;SDS011;38317;53.084;6.960;2022-11-20T02:08:52;11.40;;;5.50;;
52386;SDS011;38317;53.084;6.960;2022-11-20T02:11:19;10.68;;;5.50;;
52386;SDS011;38317;53.084;6.960;2022-11-20T02:13:46;11.40;;;5.40;;
52386;SDS011;38317;53.084;6.960;2022-11-20T02:16:33;12.70;;;5.80;;
52386;SDS011;38317;53.084;6.960;2022-11-20T02:19:02;9.13;;;4.72;;
52386;SDS011;38317;53.084;6.960;2022-11-20T02:21:43;10.02;;;5.10;;
52386;SDS011;38317;53.084;6.960;2022-11-20T02:24:17;10.60;;;5.15;;
52386;SDS011;38317;53.084;6.960;2022-11-20T02:29:37;11.10;;;5.57;;
52386;SDS011;38317;53.084;6.960;2022-11-20T02:32:18;12.88;;;5.68;;
52386;SDS011;38317;53.084;6.960;2022-11-20T02:34:49;13.75;;;5.43;;
52386;SDS011;38317;53.084;6.960;2022-11-20T02:37:14;11.90;;;5.57;;
52386;SDS011;38317;53.084;6.960;2022-11-20T02:39:42;9.68;;;5.18;;
52386;SDS011;38317;53.084;6.960;2022-11-20T02:42:09;12.55;;;5.57;;
52386;SDS011;38317;53.084;6.960;2022-11-20T02:44:35;15.57;;;7.38;;
52386;SDS011;38317;53.084;6.960;2022-11-20T02:47:01;14.43;;;6.57;;
52386;SDS011;38317;53.084;6.960;2022-11-20T02:49:27;12.88;;;5.85;;
52386;SDS011;38317;53.084;6.960;2022-11-20T02:51:52;13.32;;;5.68;;
52386;SDS011;38317;53.084;6.960;2022-11-20T02:54:18;13.30;;;5.70;;
52386;SDS011;38317;53.084;6.960;2022-11-20T02:56:44;10.63;;;5.38;;
52386;SDS011;38317;53.084;6.960;2022-11-20T02:59:09;13.13;;;5.25;;
52386;SDS011;38317;53.084;6.960;2022-11-20T03:01:35;12.65;;;5.93;;
52386;SDS011;38317;53.084;6.960;2022-11-20T03:04:01;14.20;;;5.55;;
52386;SDS011;38317;53.084;6.960;2022-11-20T03:06:27;13.85;;;5.65;;
52386;SDS011;38317;53.084;6.960;2022-11-20T03:08:53;10.00;;;5.13;;
52386;SDS011;38317;53.084;6.960;2022-11-20T03:11:19;12.52;;;5.70;;
52386;SDS011;38317;53.084;6.960;2022-11-20T03:13:45;12.63;;;5.60;;
52386;SDS011;38317;53.084;6.960;2022-11-20T03:16:12;10.93;;;5.43;;
52386;SDS011;38317;53.084;6.960;2022-11-20T03:18:42;10.95;;;5.55;;
52386;SDS011;38317;53.084;6.960;2022-11-20T03:21:09;12.77;;;5.97;;
52386;SDS011;38317;53.084;6.960;2022-11-20T03:23:38;13.85;;;6.38;;
52386;SDS011;38317;53.084;6.960;2022-11-20T03:26:09;11.35;;;5.78;;
52386;SDS011;38317;53.084;6.960;2022-11-20T03:28:49;10.75;;;5.63;;
52386;SDS011;38317;53.084;6.960;2022-11-20T03:31:35;11.85;;;5.45;;
52386;SDS011;38317;53.084;6.960;2022-11-20T03:34:03;11.07;;;5.38;;
52386;SDS011;38317;53.084;6.960;2022-11-20T03:36:29;11.90;;;5.22;;
52386;SDS011;38317;53.084;6.960;2022-11-20T03:38:56;11.63;;;5.50;;
52386;SDS011;38317;53.084;6.960;2022-11-20T03:41:23;11.93;;;5.15;;
52386;SDS011;38317;53.084;6.960;2022-11-20T03:43:51;9.68;;;4.70;;
52386;SDS011;38317;53.084;6.960;2022-11-20T03:46:18;10.68;;;4.93;;
52386;SDS011;38317;53.084;6.960;2022-11-20T03:48:45;10.60;;;5.40;;
52386;SDS011;38317;53.084;6.960;2022-11-20T03:51:15;10.27;;;5.75;;
52386;SDS011;38317;53.084;6.960;2022-11-20T03:53:43;12.55;;;5.57;;
52386;SDS011;38317;53.084;6.960;2022-11-20T03:56:10;11.95;;;5.93;;
52386;SDS011;38317;53.084;6.960;2022-11-20T03:58:37;9.68;;;5.22;;
52386;SDS011;38317;53.084;6.960;2022-11-20T04:01:05;9.93;;;4.70;;
52386;SDS011;38317;53.084;6.960;2022-11-20T04:03:32;10.85;;;5.20;;
52386;SDS011;38317;53.084;6.960;2022-11-20T04:06:11;12.85;;;5.72;;
52386;SDS011;38317;53.084;6.960;2022-11-20T04:08:42;10.40;;;4.97;;
52386;SDS011;38317;53.084;6.960;2022-11-20T04:11:15;9.55;;;4.85;;
52386;SDS011;38317;53.084;6.960;2022-11-20T04:13:41;9.07;;;5.00;;
52386;SDS011;38317;53.084;6.960;2022-11-20T04:16:10;13.70;;;5.13;;
52386;SDS011;38317;53.084;6.960;2022-11-20T04:18:36;11.07;;;5.25;;
52386;SDS011;38317;53.084;6.960;2022-11-20T04:21:03;9.70;;;4.90;;
52386;SDS011;38317;53.084;6.960;2022-11-20T04:23:29;10.85;;;5.53;;
52386;SDS011;38317;53.084;6.960;2022-11-20T04:26:00;10.57;;;5.45;;
52386;SDS011;38317;53.084;6.960;2022-11-20T04:28:33;11.77;;;5.63;;
52386;SDS011;38317;53.084;6.960;2022-11-20T04:31:03;9.68;;;4.50;;
52386;SDS011;38317;53.084;6.960;2022-11-20T04:33:31;10.65;;;5.55;;
52386;SDS011;38317;53.084;6.960;2022-11-20T04:35:59;10.30;;;5.18;;
52386;SDS011;38317;53.084;6.960;2022-11-20T04:38:30;10.63;;;4.80;;
52386;SDS011;38317;53.084;6.960;2022-11-20T04:40:57;9.35;;;4.97;;
52386;SDS011;38317;53.084;6.960;2022-11-20T04:43:24;10.57;;;4.93;;
52386;SDS011;38317;53.084;6.960;2022-11-20T04:45:51;10.25;;;4.47;;
52386;SDS011;38317;53.084;6.960;2022-11-20T04:48:17;11.73;;;5.53;;
52386;SDS011;38317;53.084;6.960;2022-11-20T04:50:43;11.05;;;5.22;;
52386;SDS011;38317;53.084;6.960;2022-11-20T04:53:09;10.23;;;4.53;;
52386;SDS011;38317;53.084;6.960;2022-11-20T04:55:34;10.60;;;4.60;;
52386;SDS011;38317;53.084;6.960;2022-11-20T04:58:00;14.63;;;4.70;;
52386;SDS011;38317;53.084;6.960;2022-11-20T05:00:26;9.80;;;4.78;;
52386;SDS011;38317;53.084;6.960;2022-11-20T05:02:51;10.50;;;4.93;;
52386;SDS011;38317;53.084;6.960;2022-11-20T05:05:17;9.73;;;4.43;;
52386;SDS011;38317;53.084;6.960;2022-11-20T05:07:43;10.75;;;5.35;;
52386;SDS011;38317;53.084;6.960;2022-11-20T05:10:09;10.80;;;5.57;;
52386;SDS011;38317;53.084;6.960;2022-11-20T05:12:35;11.63;;;4.97;;
52386;SDS011;38317;53.084;6.960;2022-11-20T05:15:00;10.32;;;5.10;;
52386;SDS011;38317;53.084;6.960;2022-11-20T05:17:26;10.07;;;5.35;;
52386;SDS011;38317;53.084;6.960;2022-11-20T05:19:52;10.40;;;4.95;;
52386;SDS011;38317;53.084;6.960;2022-11-20T05:22:17;10.20;;;4.95;;
52386;SDS011;38317;53.084;6.960;2022-11-20T05:24:43;10.23;;;4.97;;
52386;SDS011;38317;53.084;6.960;2022-11-20T05:27:09;12.15;;;5.38;;
52386;SDS011;38317;53.084;6.960;2022-11-20T05:29:34;9.63;;;4.88;;
52386;SDS011;38317;53.084;6.960;2022-11-20T05:32:00;9.15;;;4.80;;
52386;SDS011;38317;53.084;6.960;2022-11-20T05:34:26;9.02;;;4.35;;
52386;SDS011;38317;53.084;6.960;2022-11-20T05:36:52;9.25;;;4.95;;
52386;SDS011;38317;53.084;6.960;2022-11-20T05:39:17;10.10;;;5.18;;
52386;SDS011;38317;53.084;6.960;2022-11-20T05:41:43;11.43;;;5.25;;
52386;SDS011;38317;53.084;6.960;2022-11-20T05:44:12;11.00;;;5.53;;
52386;SDS011;38317;53.084;6.960;2022-11-20T05:46:38;11.40;;;5.22;;
52386;SDS011;38317;53.084;6.960;2022-11-20T05:49:04;10.52;;;4.93;;
52386;SDS011;38317;53.084;6.960;2022-11-20T05:51:29;9.18;;;5.28;;
52386;SDS011;38317;53.084;6.960;2022-11-20T05:53:58;10.02;;;5.35;;
52386;SDS011;38317;53.084;6.960;2022-11-20T05:56:24;11.38;;;5.10;;
52386;SDS011;38317;53.084;6.960;2022-11-20T05:58:49;11.57;;;5.32;;
52386;SDS011;38317;53.084;6.960;2022-11-20T06:01:17;9.85;;;5.28;;
52386;SDS011;38317;53.084;6.960;2022-11-20T06:03:45;12.38;;;5.82;;
52386;SDS011;38317;53.084;6.960;2022-11-20T06:06:12;10.40;;;5.55;;
52386;SDS011;38317;53.084;6.960;2022-11-20T06:08:39;11.30;;;5.50;;
52386;SDS011;38317;53.084;6.960;2022-11-20T06:11:06;10.90;;;5.53;;
52386;SDS011;38317;53.084;6.960;2022-11-20T06:13:34;11.98;;;5.65;;
52386;SDS011;38317;53.084;6.960;2022-11-20T06:16:00;11.52;;;5.65;;
52386;SDS011;38317;53.084;6.960;2022-11-20T06:18:27;10.27;;;5.13;;
52386;SDS011;38317;53.084;6.960;2022-11-20T06:21:00;11.55;;;5.32;;
52386;SDS011;38317;53.084;6.960;2022-11-20T06:23:34;9.98;;;5.00;;
52386;SDS011;38317;53.084;6.960;2022-11-20T06:26:10;11.68;;;5.57;;
52386;SDS011;38317;53.084;6.960;2022-11-20T06:28:38;9.23;;;4.72;;
52386;SDS011;38317;53.084;6.960;2022-11-20T06:31:05;10.65;;;5.13;;
52386;SDS011;38317;53.084;6.960;2022-11-20T06:33:32;10.07;;;4.68;;
52386;SDS011;38317;53.084;6.960;2022-11-20T06:35:58;11.95;;;5.68;;
52386;SDS011;38317;53.084;6.960;2022-11-20T06:38:25;10.80;;;5.32;;
52386;SDS011;38317;53.084;6.960;2022-11-20T06:40:51;10.48;;;5.20;;
52386;SDS011;38317;53.084;6.960;2022-11-20T06:43:17;9.73;;;5.30;;
52386;SDS011;38317;53.084;6.960;2022-11-20T06:45:43;11.40;;;5.30;;
52386;SDS011;38317;53.084;6.960;2022-11-20T06:48:09;10.50;;;4.90;;
52386;SDS011;38317;53.084;6.960;2022-11-20T06:50:36;11.23;;;5.35;;
52386;SDS011;38317;53.084;6.960;2022-11-20T06:53:02;12.18;;;6.25;;
52386;SDS011;38317;53.084;6.960;2022-11-20T06:55:29;11.68;;;5.78;;
52386;SDS011;38317;53.084;6.960;2022-11-20T06:57:56;11.85;;;5.90;;
52386;SDS011;38317;53.084;6.960;2022-11-20T07:00:22;11.65;;;5.15;;
52386;SDS011;38317;53.084;6.960;2022-11-20T07:02:48;9.43;;;4.95;;
52386;SDS011;38317;53.084;6.960;2022-11-20T07:05:13;11.40;;;5.63;;
52386;SDS011;38317;53.084;6.960;2022-11-20T07:07:39;12.20;;;4.93;;
52386;SDS011;38317;53.084;6.960;2022-11-20T07:10:05;11.40;;;5.05;;
52386;SDS011;38317;53.084;6.960;2022-11-20T07:12:31;10.10;;;4.30;;
52386;SDS011;38317;53.084;6.960;2022-11-20T07:14:57;9.60;;;4.82;;
52386;SDS011;38317;53.084;6.960;2022-11-20T07:17:23;9.38;;;4.97;;
52386;SDS011;38317;53.084;6.960;2022-11-20T07:19:49;10.45;;;5.25;;
52386;SDS011;38317;53.084;6.960;2022-11-20T07:22:14;9.15;;;5.18;;
52386;SDS011;38317;53.084;6.960;2022-11-20T07:24:40;7.63;;;3.75;;
52386;SDS011;38317;53.084;6.960;2022-11-20T07:27:06;10.50;;;4.80;;
52386;SDS011;38317;53.084;6.960;2022-11-20T07:29:31;9.30;;;4.22;;
52386;SDS011;38317;53.084;6.960;2022-11-20T07:31:57;8.85;;;4.10;;
52386;SDS011;38317;53.084;6.960;2022-11-20T07:34:23;9.77;;;4.57;;
52386;SDS011;38317;53.084;6.960;2022-11-20T07:36:49;11.13;;;4.90;;
52386;SDS011;38317;53.084;6.960;2022-11-20T07:39:15;10.77;;;4.90;;
52386;SDS011;38317;53.084;6.960;2022-11-20T07:41:41;9.30;;;4.60;;
52386;SDS011;38317;53.084;6.960;2022-11-20T07:44:06;9.20;;;4.45;;
52386;SDS011;38317;53.084;6.960;2022-11-20T07:46:32;9.80;;;4.47;;
52386;SDS011;38317;53.084;6.960;2022-11-20T07:48:58;9.10;;;5.03;;
52386;SDS011;38317;53.084;6.960;2022-11-20T07:51:24;10.20;;;5.00;;
52386;SDS011;38317;53.084;6.960;2022-11-20T07:53:54;10.20;;;4.70;;
52386;SDS011;38317;53.084;6.960;2022-11-20T07:56:19;12.80;;;4.03;;
52386;SDS011;38317;53.084;6.960;2022-11-20T07:58:45;10.00;;;4.82;;
52386;SDS011;38317;53.084;6.960;2022-11-20T08:01:11;9.52;;;4.22;;
52386;SDS011;38317;53.084;6.960;2022-11-20T08:03:36;9.63;;;4.43;;
52386;SDS011;38317;53.084;6.960;2022-11-20T08:06:03;7.82;;;3.95;;
52386;SDS011;38317;53.084;6.960;2022-11-20T08:08:29;12.48;;;4.43;;
52386;SDS011;38317;53.084;6.960;2022-11-20T08:10:58;9.25;;;4.63;;
52386;SDS011;38317;53.084;6.960;2022-11-20T08:13:43;8.95;;;3.95;;
52386;SDS011;38317;53.084;6.960;2022-11-20T08:16:28;10.27;;;4.13;;
52386;SDS011;38317;53.084;6.960;2022-11-20T08:18:54;10.60;;;5.22;;
52386;SDS011;38317;53.084;6.960;2022-11-20T08:21:20;8.55;;;4.43;;
52386;SDS011;38317;53.084;6.960;2022-11-20T08:23:45;10.23;;;4.97;;
52386;SDS011;38317;53.084;6.960;2022-11-20T08:26:11;8.90;;;4.07;;
52386;SDS011;38317;53.084;6.960;2022-11-20T08:28:37;9.52;;;4.20;;
52386;SDS011;38317;53.084;6.960;2022-11-20T08:31:03;10.27;;;5.07;;
52386;SDS011;38317;53.084;6.960;2022-11-20T08:33:29;10.00;;;4.22;;
52386;SDS011;38317;53.084;6.960;2022-11-20T08:36:01;8.70;;;4.28;;
52386;SDS011;38317;53.084;6.960;2022-11-20T08:38:27;8.00;;;3.95;;
52386;SDS011;38317;53.084;6.960;2022-11-20T08:41:00;9.15;;;3.88;;
52386;SDS011;38317;53.084;6.960;2022-11-20T08:43:46;10.02;;;4.50;;
52386;SDS011;38317;53.084;6.960;2022-11-20T08:46:12;9.82;;;4.80;;
52386;SDS011;38317;53.084;6.960;2022-11-20T08:48:38;9.52;;;4.60;;
52386;SDS011;38317;53.084;6.960;2022-11-20T08:51:04;10.23;;;5.35;;
52386;SDS011;38317;53.084;6.960;2022-11-20T08:53:30;8.25;;;4.00;;
52386;SDS011;38317;53.084;6.960;2022-11-20T08:55:56;9.85;;;4.95;;
52386;SDS011;38317;53.084;6.960;2022-11-20T08:58:23;10.70;;;5.10;;
52386;SDS011;38317;53.084;6.960;2022-11-20T09:00:49;11.02;;;5.00;;
52386;SDS011;38317;53.084;6.960;2022-11-20T09:03:15;9.63;;;4.88;;
52386;SDS011;38317;53.084;6.960;2022-11-20T09:05:41;9.35;;;4.32;;
52386;SDS011;38317;53.084;6.960;2022-11-20T09:08:07;10.27;;;4.35;;
52386;SDS011;38317;53.084;6.960;2022-11-20T09:10:33;8.23;;;4.05;;
52386;SDS011;38317;53.084;6.960;2022-11-20T09:13:00;10.38;;;4.60;;
52386;SDS011;38317;53.084;6.960;2022-11-20T09:15:26;10.93;;;4.85;;
52386;SDS011;38317;53.084;6.960;2022-11-20T09:17:53;11.07;;;4.63;;
52386;SDS011;38317;53.084;6.960;2022-11-20T09:20:23;9.18;;;4.47;;
52386;SDS011;38317;53.084;6.960;2022-11-20T09:22:50;9.52;;;4.50;;
52386;SDS011;38317;53.084;6.960;2022-11-20T09:25:16;12.65;;;4.35;;
52386;SDS011;38317;53.084;6.960;2022-11-20T09:27:42;8.25;;;4.25;;
52386;SDS011;38317;53.084;6.960;2022-11-20T09:30:09;10.73;;;4.88;;
52386;SDS011;38317;53.084;6.960;2022-11-20T09:32:35;11.02;;;5.07;;
52386;SDS011;38317;53.084;6.960;2022-11-20T09:35:01;9.75;;;4.85;;
52386;SDS011;38317;53.084;6.960;2022-11-20T09:37:27;11.75;;;5.63;;
52386;SDS011;38317;53.084;6.960;2022-11-20T09:39:53;11.27;;;5.03;;
52386;SDS011;38317;53.084;6.960;2022-11-20T09:50:29;11.65;;;5.32;;
52386;SDS011;38317;53.084;6.960;2022-11-20T09:55:35;9.98;;;4.75;;
52386;SDS011;38317;53.084;6.960;2022-11-20T09:58:05;9.32;;;4.65;;
52386;SDS011;38317;53.084;6.960;2022-11-20T10:00:32;10.05;;;4.90;;
52386;SDS011;38317;53.084;6.960;2022-11-20T10:03:01;8.30;;;4.07;;
52386;SDS011;38317;53.084;6.960;2022-11-20T10:05:55;9.45;;;4.60;;
52386;SDS011;38317;53.084;6.960;2022-11-20T10:08:39;9.68;;;4.53;;
52386;SDS011;38317;53.084;6.960;2022-11-20T10:27:48;10.85;;;4.28;;
52386;SDS011;38317;53.084;6.960;2022-11-20T10:30:41;8.70;;;4.53;;
52386;SDS011;38317;53.084;6.960;2022-11-20T10:33:19;11.02;;;4.60;;
52386;SDS011;38317;53.084;6.960;2022-11-20T10:38:50;8.00;;;3.90;;
52386;SDS011;38317;53.084;6.960;2022-11-20T10:41:42;9.20;;;4.57;;
52386;SDS011;38317;53.084;6.960;2022-11-20T10:44:20;8.57;;;4.32;;
52386;SDS011;38317;53.084;6.960;2022-11-20T10:47:18;9.05;;;3.80;;
52386;SDS011;38317;53.084;6.960;2022-11-20T10:49:45;8.27;;;3.88;;
52386;SDS011;38317;53.084;6.960;2022-11-20T10:52:19;8.48;;;3.92;;
52386;SDS011;38317;53.084;6.960;2022-11-20T10:55:30;11.27;;;4.93;;
52386;SDS011;38317;53.084;6.960;2022-11-20T10:58:10;7.57;;;4.25;;
52386;SDS011;38317;53.084;6.960;2022-11-20T11:00:41;10.73;;;4.70;;
52386;SDS011;38317;53.084;6.960;2022-11-20T11:03:20;8.95;;;4.18;;
52386;SDS011;38317;53.084;6.960;2022-11-20T11:06:00;10.38;;;4.25;;
52386;SDS011;38317;53.084;6.960;2022-11-20T11:08:44;9.93;;;4.55;;
52386;SDS011;38317;53.084;6.960;2022-11-20T11:11:23;10.40;;;4.85;;
52386;SDS011;38317;53.084;6.960;2022-11-20T11:13:52;11.60;;;5.93;;
52386;SDS011;38317;53.084;6.960;2022-11-20T11:16:28;10.23;;;4.78;;
52386;SDS011;38317;53.084;6.960;2022-11-20T11:19:10;10.50;;;5.53;;
52386;SDS011;38317;53.084;6.960;2022-11-20T11:21:38;12.15;;;5.82;;
52386;SDS011;38317;53.084;6.960;2022-11-20T11:24:29;11.63;;;5.40;;
52386;SDS011;38317;53.084;6.960;2022-11-20T11:26:59;9.90;;;5.18;;
52386;SDS011;38317;53.084;6.960;2022-11-20T11:29:29;9.73;;;4.95;;
52386;SDS011;38317;53.084;6.960;2022-11-20T11:32:29;9.40;;;5.22;;
52386;SDS011;38317;53.084;6.960;2022-11-20T11:35:03;10.98;;;5.40;;
52386;SDS011;38317;53.084;6.960;2022-11-20T11:37:36;10.70;;;5.32;;
52386;SDS011;38317;53.084;6.960;2022-11-20T11:40:03;12.73;;;5.70;;
52386;SDS011;38317;53.084;6.960;2022-11-20T11:42:31;10.55;;;5.38;;
52386;SDS011;38317;53.084;6.960;2022-11-20T11:44:58;10.07;;;5.13;;
52386;SDS011;38317;53.084;6.960;2022-11-20T11:47:32;10.13;;;4.65;;
52386;SDS011;38317;53.084;6.960;2022-11-20T11:52:56;10.63;;;5.90;;
52386;SDS011;38317;53.084;6.960;2022-11-20T12:01:22;9.02;;;4.35;;
52386;SDS011;38317;53.084;6.960;2022-11-20T12:04:15;7.95;;;4.30;;
52386;SDS011;38317;53.084;6.960;2022-11-20T12:07:04;7.00;;;3.85;;
52386;SDS011;38317;53.084;6.960;2022-11-20T12:09:42;8.32;;;4.10;;
52386;SDS011;38317;53.084;6.960;2022-11-20T12:12:24;8.32;;;3.72;;
52386;SDS011;38317;53.084;6.960;2022-11-20T12:14:56;6.85;;;3.45;;
52386;SDS011;38317;53.084;6.960;2022-11-20T12:17:23;6.68;;;3.22;;
52386;SDS011;38317;53.084;6.960;2022-11-20T12:19:49;9.02;;;4.53;;
52386;SDS011;38317;53.084;6.960;2022-11-20T12:22:33;7.32;;;3.97;;
52386;SDS011;38317;53.084;6.960;2022-11-20T12:25:36;5.13;;;2.70;;
52386;SDS011;38317;53.084;6.960;2022-11-20T12:28:14;6.72;;;3.20;;
52386;SDS011;38317;53.084;6.960;2022-11-20T12:42:13;5.05;;;2.58;;
52386;SDS011;38317;53.084;6.960;2022-11-20T12:48:07;7.38;;;2.75;;
52386;SDS011;38317;53.084;6.960;2022-11-20T12:51:05;6.97;;;3.28;;
52386;SDS011;38317;53.084;6.960;2022-11-20T13:00:29;6.20;;;2.63;;
52386;SDS011;38317;53.084;6.960;2022-11-20T13:07:27;7.30;;;2.88;;
52386;SDS011;38317;53.084;6.960;2022-11-20T13:09:54;6.43;;;2.92;;
52386;SDS011;38317;53.084;6.960;2022-11-20T13:17:39;6.05;;;2.58;;
52386;SDS011;38317;53.084;6.960;2022-11-20T13:20:15;8.05;;;3.55;;
52386;SDS011;38317;53.084;6.960;2022-11-20T13:25:09;7.43;;;3.22;;
52386;SDS011;38317;53.084;6.960;2022-11-20T13:27:36;7.80;;;3.70;;
52386;SDS011;38317;53.084;6.960;2022-11-20T13:30:14;5.82;;;2.80;;
52386;SDS011;38317;53.084;6.960;2022-11-20T13:35:23;7.82;;;3.58;;
52386;SDS011;38317;53.084;6.960;2022-11-20T13:38:03;6.78;;;3.25;;
52386;SDS011;38317;53.084;6.960;2022-11-20T13:40:58;7.25;;;3.30;;
52386;SDS011;38317;53.084;6.960;2022-11-20T13:43:41;7.55;;;3.47;;
52386;SDS011;38317;53.084;6.960;2022-11-20T13:46:08;6.43;;;3.60;;
52386;SDS011;38317;53.084;6.960;2022-11-20T13:48:39;6.63;;;3.30;;
52386;SDS011;38317;53.084;6.960;2022-11-20T13:51:09;7.45;;;3.65;;
52386;SDS011;38317;53.084;6.960;2022-11-20T13:59:33;7.97;;;3.83;;
52386;SDS011;38317;53.084;6.960;2022-11-20T14:02:13;7.28;;;3.50;;
52386;SDS011;38317;53.084;6.960;2022-11-20T14:04:42;7.75;;;3.95;;
52386;SDS011;38317;53.084;6.960;2022-11-20T14:07:14;7.53;;;3.40;;
52386;SDS011;38317;53.084;6.960;2022-11-20T14:09:49;7.97;;;4.30;;
52386;SDS011;38317;53.084;6.960;2022-11-20T14:12:18;7.88;;;3.78;;
52386;SDS011;38317;53.084;6.960;2022-11-20T14:14:48;8.02;;;3.83;;
52386;SDS011;38317;53.084;6.960;2022-11-20T14:19:54;7.40;;;3.78;;
52386;SDS011;38317;53.084;6.960;2022-11-20T14:22:25;8.18;;;4.10;;
52386;SDS011;38317;53.084;6.960;2022-11-20T14:27:41;8.80;;;3.75;;
52386;SDS011;38317;53.084;6.960;2022-11-20T14:30:12;10.35;;;4.93;;
52386;SDS011;38317;53.084;6.960;2022-11-20T14:32:39;9.10;;;4.20;;
52386;SDS011;38317;53.084;6.960;2022-11-20T14:35:08;9.00;;;4.22;;
52386;SDS011;38317;53.084;6.960;2022-11-20T14:37:38;8.07;;;3.90;;
52386;SDS011;38317;53.084;6.960;2022-11-20T14:40:51;8.30;;;3.72;;
52386;SDS011;38317;53.084;6.960;2022-11-20T14:42:56;7.90;;;3.72;;
52386;SDS011;38317;53.084;6.960;2022-11-20T14:45:23;8.30;;;4.00;;
52386;SDS011;38317;53.084;6.960;2022-11-20T14:47:50;8.15;;;3.95;;
52386;SDS011;38317;53.084;6.960;2022-11-20T14:50:20;9.10;;;3.92;;
52386;SDS011;38317;53.084;6.960;2022-11-20T14:52:58;7.90;;;3.90;;
52386;SDS011;38317;53.084;6.960;2022-11-20T14:55:29;7.55;;;4.03;;
52386;SDS011;38317;53.084;6.960;2022-11-20T15:01:00;8.75;;;4.03;;
52386;SDS011;38317;53.084;6.960;2022-11-20T15:03:36;6.50;;;3.20;;
52386;SDS011;38317;53.084;6.960;2022-11-20T15:06:05;8.32;;;4.20;;
52386;SDS011;38317;53.084;6.960;2022-11-20T15:08:37;8.75;;;3.50;;
52386;SDS011;38317;53.084;6.960;2022-11-20T15:11:03;7.15;;;3.50;;
52386;SDS011;38317;53.084;6.960;2022-11-20T15:13:41;6.70;;;3.45;;
52386;SDS011;38317;53.084;6.960;2022-11-20T15:16:16;8.98;;;4.15;;
52386;SDS011;38317;53.084;6.960;2022-11-20T15:18:44;9.43;;;4.38;;
52386;SDS011;38317;53.084;6.960;2022-11-20T15:21:12;7.68;;;3.58;;
52386;SDS011;38317;53.084;6.960;2022-11-20T15:23:39;9.00;;;4.00;;
52386;SDS011;38317;53.084;6.960;2022-11-20T15:26:05;7.45;;;3.67;;
52386;SDS011;38317;53.084;6.960;2022-11-20T15:28:36;9.45;;;4.30;;
52386;SDS011;38317;53.084;6.960;2022-11-20T15:31:05;7.20;;;3.63;;
52386;SDS011;38317;53.084;6.960;2022-11-20T15:33:32;9.27;;;4.40;;
52386;SDS011;38317;53.084;6.960;2022-11-20T15:35:58;8.15;;;3.80;;
52386;SDS011;38317;53.084;6.960;2022-11-20T15:38:24;8.55;;;3.80;;
52386;SDS011;38317;53.084;6.960;2022-11-20T15:40:50;8.13;;;3.88;;
52386;SDS011;38317;53.084;6.960;2022-11-20T15:43:16;8.73;;;3.92;;
52386;SDS011;38317;53.084;6.960;2022-11-20T15:45:51;8.32;;;3.80;;
52386;SDS011;38317;53.084;6.960;2022-11-20T15:48:30;7.78;;;3.75;;
52386;SDS011;38317;53.084;6.960;2022-11-20T15:53:35;8.15;;;4.15;;
52386;SDS011;38317;53.084;6.960;2022-11-20T15:56:02;8.02;;;4.07;;
52386;SDS011;38317;53.084;6.960;2022-11-20T15:58:28;7.18;;;3.55;;
52386;SDS011;38317;53.084;6.960;2022-11-20T16:00:54;8.15;;;3.85;;
52386;SDS011;38317;53.084;6.960;2022-11-20T16:03:20;11.05;;;4.15;;
52386;SDS011;38317;53.084;6.960;2022-11-20T16:05:46;9.30;;;4.47;;
52386;SDS011;38317;53.084;6.960;2022-11-20T16:08:12;9.52;;;4.20;;
52386;SDS011;38317;53.084;6.960;2022-11-20T16:10:38;8.05;;;4.10;;
52386;SDS011;38317;53.084;6.960;2022-11-20T16:13:04;8.48;;;4.03;;
52386;SDS011;38317;53.084;6.960;2022-11-20T16:15:56;8.90;;;4.15;;
52386;SDS011;38317;53.084;6.960;2022-11-20T16:18:24;9.32;;;3.97;;
52386;SDS011;38317;53.084;6.960;2022-11-20T16:20:53;7.97;;;3.70;;
52386;SDS011;38317;53.084;6.960;2022-11-20T16:23:20;9.30;;;4.55;;
52386;SDS011;38317;53.084;6.960;2022-11-20T16:25:46;9.32;;;4.50;;
52386;SDS011;38317;53.084;6.960;2022-11-20T16:28:12;9.35;;;4.40;;
52386;SDS011;38317;53.084;6.960;2022-11-20T16:30:38;9.88;;;4.32;;
52386;SDS011;38317;53.084;6.960;2022-11-20T16:33:04;7.18;;;3.78;;
52386;SDS011;38317;53.084;6.960;2022-11-20T16:35:36;8.27;;;4.03;;
52386;SDS011;38317;53.084;6.960;2022-11-20T16:38:02;9.45;;;4.25;;
52386;SDS011;38317;53.084;6.960;2022-11-20T16:40:28;8.48;;;4.10;;
52386;SDS011;38317;53.084;6.960;2022-11-20T16:42:54;8.30;;;4.63;;